sensor_id;sensor_type;location;lat;lon;timestamp;temperature;humidity
72814;DHT22;60945;48.516;-2.768;2022-08-19T00:01:30;18.60;82.40
72814;DHT22;60945;48.516;-2.768;2022-08-19T00:04:01;18.60;82.60
72814;DHT22;60945;48.516;-2.768;2022-08-19T00:06:27;18.60;82.50
72814;DHT22;60945;48.516;-2.768;2022-08-19T00:08:52;18.70;82.30
72814;DHT22;60945;48.516;-2.768;2022-08-19T00:11:18;18.70;82.00
72814;DHT22;60945;48.516;-2.768;2022-08-19T00:13:44;18.80;82.10
72814;DHT22;60945;48.516;-2.768;2022-08-19T00:16:11;18.70;82.10
72814;DHT22;60945;48.516;-2.768;2022-08-19T00:18:37;18.90;81.60
72814;DHT22;60945;48.516;-2.768;2022-08-19T00:21:02;18.90;81.60
72814;DHT22;60945;48.516;-2.768;2022-08-19T00:23:28;18.90;81.70
72814;DHT22;60945;48.516;-2.768;2022-08-19T00:25:55;18.90;81.70
72814;DHT22;60945;48.516;-2.768;2022-08-19T00:28:20;18.90;81.30
72814;DHT22;60945;48.516;-2.768;2022-08-19T00:30:46;19.00;81.20
72814;DHT22;60945;48.516;-2.768;2022-08-19T00:33:12;18.90;81.20
72814;DHT22;60945;48.516;-2.768;2022-08-19T00:35:38;19.00;80.90
72814;DHT22;60945;48.516;-2.768;2022-08-19T00:38:04;19.00;81.00
72814;DHT22;60945;48.516;-2.768;2022-08-19T00:40:31;19.00;81.20
72814;DHT22;60945;48.516;-2.768;2022-08-19T00:42:57;19.10;81.20
72814;DHT22;60945;48.516;-2.768;2022-08-19T00:45:24;19.10;80.90
72814;DHT22;60945;48.516;-2.768;2022-08-19T00:47:49;19.20;80.30
72814;DHT22;60945;48.516;-2.768;2022-08-19T00:50:16;19.10;80.50
72814;DHT22;60945;48.516;-2.768;2022-08-19T00:52:43;19.20;80.40
72814;DHT22;60945;48.516;-2.768;2022-08-19T00:55:12;19.10;80.50
72814;DHT22;60945;48.516;-2.768;2022-08-19T00:57:39;19.20;80.40
72814;DHT22;60945;48.516;-2.768;2022-08-19T01:00:07;19.20;80.40
72814;DHT22;60945;48.516;-2.768;2022-08-19T01:02:33;19.20;80.20
72814;DHT22;60945;48.516;-2.768;2022-08-19T01:05:00;19.20;80.00
72814;DHT22;60945;48.516;-2.768;2022-08-19T01:07:26;19.30;80.00
72814;DHT22;60945;48.516;-2.768;2022-08-19T01:09:52;19.30;80.10
72814;DHT22;60945;48.516;-2.768;2022-08-19T01:12:18;19.20;80.20
72814;DHT22;60945;48.516;-2.768;2022-08-19T01:14:43;19.20;80.50
72814;DHT22;60945;48.516;-2.768;2022-08-19T01:17:10;19.20;80.20
72814;DHT22;60945;48.516;-2.768;2022-08-19T01:19:37;19.20;80.20
72814;DHT22;60945;48.516;-2.768;2022-08-19T01:22:14;19.30;80.10
72814;DHT22;60945;48.516;-2.768;2022-08-19T01:24:41;19.30;80.20
72814;DHT22;60945;48.516;-2.768;2022-08-19T01:27:07;19.30;80.30
72814;DHT22;60945;48.516;-2.768;2022-08-19T01:29:33;19.30;80.10
72814;DHT22;60945;48.516;-2.768;2022-08-19T01:31:59;19.30;79.90
72814;DHT22;60945;48.516;-2.768;2022-08-19T01:34:25;19.30;79.80
72814;DHT22;60945;48.516;-2.768;2022-08-19T01:36:51;19.30;80.00
72814;DHT22;60945;48.516;-2.768;2022-08-19T01:39:18;19.30;79.90
72814;DHT22;60945;48.516;-2.768;2022-08-19T01:41:44;19.30;79.50
72814;DHT22;60945;48.516;-2.768;2022-08-19T01:44:10;19.30;79.90
72814;DHT22;60945;48.516;-2.768;2022-08-19T01:46:36;19.30;79.80
72814;DHT22;60945;48.516;-2.768;2022-08-19T01:49:04;19.10;80.30
72814;DHT22;60945;48.516;-2.768;2022-08-19T01:51:29;19.10;80.50
72814;DHT22;60945;48.516;-2.768;2022-08-19T01:53:56;19.20;80.50
72814;DHT22;60945;48.516;-2.768;2022-08-19T01:56:21;19.20;80.30
72814;DHT22;60945;48.516;-2.768;2022-08-19T01:58:52;19.30;80.20
72814;DHT22;60945;48.516;-2.768;2022-08-19T02:01:19;19.30;79.70
72814;DHT22;60945;48.516;-2.768;2022-08-19T02:03:44;19.30;80.00
72814;DHT22;60945;48.516;-2.768;2022-08-19T02:06:11;19.20;80.20
72814;DHT22;60945;48.516;-2.768;2022-08-19T02:08:37;19.10;80.40
72814;DHT22;60945;48.516;-2.768;2022-08-19T02:11:04;19.10;80.60
72814;DHT22;60945;48.516;-2.768;2022-08-19T02:13:30;19.10;80.60
72814;DHT22;60945;48.516;-2.768;2022-08-19T02:15:56;19.10;80.40
72814;DHT22;60945;48.516;-2.768;2022-08-19T02:18:21;19.10;80.60
72814;DHT22;60945;48.516;-2.768;2022-08-19T02:20:49;19.10;80.40
72814;DHT22;60945;48.516;-2.768;2022-08-19T02:23:15;19.20;79.90
72814;DHT22;60945;48.516;-2.768;2022-08-19T02:25:41;19.20;79.60
72814;DHT22;60945;48.516;-2.768;2022-08-19T02:28:06;19.20;80.10
72814;DHT22;60945;48.516;-2.768;2022-08-19T02:30:32;19.10;80.20
72814;DHT22;60945;48.516;-2.768;2022-08-19T02:32:57;19.10;80.20
72814;DHT22;60945;48.516;-2.768;2022-08-19T02:35:23;19.10;80.20
72814;DHT22;60945;48.516;-2.768;2022-08-19T02:37:49;19.10;80.20
72814;DHT22;60945;48.516;-2.768;2022-08-19T02:40:33;19.10;80.20
72814;DHT22;60945;48.516;-2.768;2022-08-19T02:43:00;19.10;80.20
72814;DHT22;60945;48.516;-2.768;2022-08-19T02:45:26;19.10;79.70
72814;DHT22;60945;48.516;-2.768;2022-08-19T02:47:51;19.10;79.80
72814;DHT22;60945;48.516;-2.768;2022-08-19T02:50:17;19.10;80.00
72814;DHT22;60945;48.516;-2.768;2022-08-19T02:52:42;19.10;80.00
72814;DHT22;60945;48.516;-2.768;2022-08-19T02:55:08;19.20;79.60
72814;DHT22;60945;48.516;-2.768;2022-08-19T02:57:34;19.10;80.00
72814;DHT22;60945;48.516;-2.768;2022-08-19T02:59:59;19.10;79.90
72814;DHT22;60945;48.516;-2.768;2022-08-19T03:02:26;19.10;79.90
72814;DHT22;60945;48.516;-2.768;2022-08-19T03:04:52;19.10;80.00
72814;DHT22;60945;48.516;-2.768;2022-08-19T03:07:18;19.10;80.00
72814;DHT22;60945;48.516;-2.768;2022-08-19T03:09:44;19.10;80.30
72814;DHT22;60945;48.516;-2.768;2022-08-19T03:12:09;19.00;80.80
72814;DHT22;60945;48.516;-2.768;2022-08-19T03:14:35;19.00;80.70
72814;DHT22;60945;48.516;-2.768;2022-08-19T03:17:01;19.10;80.60
72814;DHT22;60945;48.516;-2.768;2022-08-19T03:19:26;19.10;80.20
72814;DHT22;60945;48.516;-2.768;2022-08-19T03:21:52;19.10;80.20
72814;DHT22;60945;48.516;-2.768;2022-08-19T03:24:18;19.10;80.20
72814;DHT22;60945;48.516;-2.768;2022-08-19T03:26:45;19.10;80.40
72814;DHT22;60945;48.516;-2.768;2022-08-19T03:29:11;19.10;80.10
72814;DHT22;60945;48.516;-2.768;2022-08-19T03:31:38;19.10;79.70
72814;DHT22;60945;48.516;-2.768;2022-08-19T03:34:04;19.20;79.50
72814;DHT22;60945;48.516;-2.768;2022-08-19T03:36:29;19.10;79.30
72814;DHT22;60945;48.516;-2.768;2022-08-19T03:38:59;19.20;79.20
72814;DHT22;60945;48.516;-2.768;2022-08-19T03:41:32;19.20;78.90
72814;DHT22;60945;48.516;-2.768;2022-08-19T03:43:58;19.10;78.90
72814;DHT22;60945;48.516;-2.768;2022-08-19T03:46:25;19.10;79.40
72814;DHT22;60945;48.516;-2.768;2022-08-19T03:48:51;19.10;79.70
72814;DHT22;60945;48.516;-2.768;2022-08-19T03:51:21;19.10;78.60
72814;DHT22;60945;48.516;-2.768;2022-08-19T03:53:47;19.20;79.00
72814;DHT22;60945;48.516;-2.768;2022-08-19T03:56:13;19.20;78.80
72814;DHT22;60945;48.516;-2.768;2022-08-19T03:58:39;19.20;78.40
72814;DHT22;60945;48.516;-2.768;2022-08-19T04:01:09;19.20;78.50
72814;DHT22;60945;48.516;-2.768;2022-08-19T04:03:35;19.20;78.60
72814;DHT22;60945;48.516;-2.768;2022-08-19T04:06:20;19.10;78.80
72814;DHT22;60945;48.516;-2.768;2022-08-19T04:08:47;19.10;78.90
72814;DHT22;60945;48.516;-2.768;2022-08-19T04:11:13;19.10;78.80
72814;DHT22;60945;48.516;-2.768;2022-08-19T04:13:39;19.00;79.30
72814;DHT22;60945;48.516;-2.768;2022-08-19T04:16:05;19.10;79.60
72814;DHT22;60945;48.516;-2.768;2022-08-19T04:18:32;19.10;79.50
72814;DHT22;60945;48.516;-2.768;2022-08-19T04:20:58;19.20;78.70
72814;DHT22;60945;48.516;-2.768;2022-08-19T04:23:24;19.20;79.10
72814;DHT22;60945;48.516;-2.768;2022-08-19T04:25:50;19.20;78.90
72814;DHT22;60945;48.516;-2.768;2022-08-19T04:28:15;19.20;78.70
72814;DHT22;60945;48.516;-2.768;2022-08-19T04:30:42;19.10;79.20
72814;DHT22;60945;48.516;-2.768;2022-08-19T04:33:08;19.10;79.20
72814;DHT22;60945;48.516;-2.768;2022-08-19T04:35:36;19.10;79.20
72814;DHT22;60945;48.516;-2.768;2022-08-19T04:38:02;19.10;79.00
72814;DHT22;60945;48.516;-2.768;2022-08-19T04:40:27;19.10;78.90
72814;DHT22;60945;48.516;-2.768;2022-08-19T04:43:13;19.10;78.90
72814;DHT22;60945;48.516;-2.768;2022-08-19T04:45:39;19.10;79.10
72814;DHT22;60945;48.516;-2.768;2022-08-19T04:48:05;19.10;79.40
72814;DHT22;60945;48.516;-2.768;2022-08-19T04:50:31;19.10;79.00
72814;DHT22;60945;48.516;-2.768;2022-08-19T04:52:56;19.10;79.20
72814;DHT22;60945;48.516;-2.768;2022-08-19T04:55:22;19.20;79.10
72814;DHT22;60945;48.516;-2.768;2022-08-19T04:57:48;19.10;79.30
72814;DHT22;60945;48.516;-2.768;2022-08-19T05:00:14;19.10;79.40
72814;DHT22;60945;48.516;-2.768;2022-08-19T05:02:39;19.10;79.20
72814;DHT22;60945;48.516;-2.768;2022-08-19T05:05:05;19.00;79.40
72814;DHT22;60945;48.516;-2.768;2022-08-19T05:07:31;19.00;79.60
72814;DHT22;60945;48.516;-2.768;2022-08-19T05:09:57;19.00;79.40
72814;DHT22;60945;48.516;-2.768;2022-08-19T05:12:22;19.00;79.50
72814;DHT22;60945;48.516;-2.768;2022-08-19T05:14:48;19.00;79.50
72814;DHT22;60945;48.516;-2.768;2022-08-19T05:17:14;18.90;79.80
72814;DHT22;60945;48.516;-2.768;2022-08-19T05:19:40;18.80;80.20
72814;DHT22;60945;48.516;-2.768;2022-08-19T05:22:24;18.80;80.40
72814;DHT22;60945;48.516;-2.768;2022-08-19T05:25:09;18.80;80.30
72814;DHT22;60945;48.516;-2.768;2022-08-19T05:27:35;18.90;80.20
72814;DHT22;60945;48.516;-2.768;2022-08-19T05:30:01;18.90;79.80
72814;DHT22;60945;48.516;-2.768;2022-08-19T05:32:27;18.90;79.70
72814;DHT22;60945;48.516;-2.768;2022-08-19T05:34:52;18.90;79.70
72814;DHT22;60945;48.516;-2.768;2022-08-19T05:37:18;18.90;79.80
72814;DHT22;60945;48.516;-2.768;2022-08-19T05:39:44;19.00;79.80
72814;DHT22;60945;48.516;-2.768;2022-08-19T05:42:10;19.00;79.50
72814;DHT22;60945;48.516;-2.768;2022-08-19T05:44:37;19.10;79.50
72814;DHT22;60945;48.516;-2.768;2022-08-19T05:47:04;19.10;79.00
72814;DHT22;60945;48.516;-2.768;2022-08-19T05:49:30;19.10;78.90
72814;DHT22;60945;48.516;-2.768;2022-08-19T05:51:55;19.20;78.50
72814;DHT22;60945;48.516;-2.768;2022-08-19T05:54:22;19.20;78.30
72814;DHT22;60945;48.516;-2.768;2022-08-19T05:56:51;19.20;78.30
72814;DHT22;60945;48.516;-2.768;2022-08-19T05:59:18;19.30;78.00
72814;DHT22;60945;48.516;-2.768;2022-08-19T06:01:45;19.30;78.00
72814;DHT22;60945;48.516;-2.768;2022-08-19T06:04:11;19.40;77.80
72814;DHT22;60945;48.516;-2.768;2022-08-19T06:06:38;19.50;77.10
72814;DHT22;60945;48.516;-2.768;2022-08-19T06:09:05;19.50;77.20
72814;DHT22;60945;48.516;-2.768;2022-08-19T06:11:32;19.60;76.90
72814;DHT22;60945;48.516;-2.768;2022-08-19T06:14:00;19.60;76.90
72814;DHT22;60945;48.516;-2.768;2022-08-19T06:16:26;19.70;76.70
72814;DHT22;60945;48.516;-2.768;2022-08-19T06:18:53;19.70;76.60
72814;DHT22;60945;48.516;-2.768;2022-08-19T06:21:23;19.70;76.30
72814;DHT22;60945;48.516;-2.768;2022-08-19T06:23:49;19.80;76.50
72814;DHT22;60945;48.516;-2.768;2022-08-19T06:26:15;19.80;76.20
72814;DHT22;60945;48.516;-2.768;2022-08-19T06:28:41;19.80;76.50
72814;DHT22;60945;48.516;-2.768;2022-08-19T06:31:13;19.80;76.40
72814;DHT22;60945;48.516;-2.768;2022-08-19T06:33:40;19.90;76.10
72814;DHT22;60945;48.516;-2.768;2022-08-19T06:36:06;20.00;76.10
72814;DHT22;60945;48.516;-2.768;2022-08-19T06:38:32;19.90;76.20
72814;DHT22;60945;48.516;-2.768;2022-08-19T06:41:02;20.00;76.00
72814;DHT22;60945;48.516;-2.768;2022-08-19T06:43:28;20.00;76.10
72814;DHT22;60945;48.516;-2.768;2022-08-19T06:45:54;20.00;76.10
72814;DHT22;60945;48.516;-2.768;2022-08-19T06:48:19;20.00;76.10
72814;DHT22;60945;48.516;-2.768;2022-08-19T06:50:45;20.00;76.30
72814;DHT22;60945;48.516;-2.768;2022-08-19T06:53:10;20.00;76.00
72814;DHT22;60945;48.516;-2.768;2022-08-19T06:55:36;20.10;75.90
72814;DHT22;60945;48.516;-2.768;2022-08-19T06:58:03;20.20;75.40
72814;DHT22;60945;48.516;-2.768;2022-08-19T07:00:29;20.30;74.90
72814;DHT22;60945;48.516;-2.768;2022-08-19T07:02:54;20.50;74.00
72814;DHT22;60945;48.516;-2.768;2022-08-19T07:05:20;20.60;73.40
72814;DHT22;60945;48.516;-2.768;2022-08-19T07:07:46;20.50;73.80
72814;DHT22;60945;48.516;-2.768;2022-08-19T07:10:11;20.60;73.50
72814;DHT22;60945;48.516;-2.768;2022-08-19T07:12:37;20.60;73.50
72814;DHT22;60945;48.516;-2.768;2022-08-19T07:15:04;20.60;73.10
72814;DHT22;60945;48.516;-2.768;2022-08-19T07:17:29;20.80;72.30
72814;DHT22;60945;48.516;-2.768;2022-08-19T07:19:55;20.90;72.00
72814;DHT22;60945;48.516;-2.768;2022-08-19T07:22:21;21.00;72.00
72814;DHT22;60945;48.516;-2.768;2022-08-19T07:24:47;21.10;71.40
72814;DHT22;60945;48.516;-2.768;2022-08-19T07:27:14;21.10;71.40
72814;DHT22;60945;48.516;-2.768;2022-08-19T07:29:39;21.20;71.30
72814;DHT22;60945;48.516;-2.768;2022-08-19T07:32:06;21.40;70.80
72814;DHT22;60945;48.516;-2.768;2022-08-19T07:34:32;21.50;70.20
72814;DHT22;60945;48.516;-2.768;2022-08-19T07:37:01;21.40;70.80
72814;DHT22;60945;48.516;-2.768;2022-08-19T07:39:29;21.40;70.30
72814;DHT22;60945;48.516;-2.768;2022-08-19T07:41:55;21.60;69.70
72814;DHT22;60945;48.516;-2.768;2022-08-19T07:44:21;21.70;69.20
72814;DHT22;60945;48.516;-2.768;2022-08-19T07:46:49;21.90;69.00
72814;DHT22;60945;48.516;-2.768;2022-08-19T07:49:15;22.00;68.80
72814;DHT22;60945;48.516;-2.768;2022-08-19T07:51:52;22.20;68.20
72814;DHT22;60945;48.516;-2.768;2022-08-19T07:54:19;22.30;67.20
72814;DHT22;60945;48.516;-2.768;2022-08-19T07:56:45;22.50;66.80
72814;DHT22;60945;48.516;-2.768;2022-08-19T07:59:11;22.60;66.40
72814;DHT22;60945;48.516;-2.768;2022-08-19T08:01:36;22.70;66.10
72814;DHT22;60945;48.516;-2.768;2022-08-19T08:04:02;23.00;65.50
72814;DHT22;60945;48.516;-2.768;2022-08-19T08:06:46;23.20;64.40
72814;DHT22;60945;48.516;-2.768;2022-08-19T08:09:32;23.30;64.10
72814;DHT22;60945;48.516;-2.768;2022-08-19T08:11:59;23.20;63.10
72814;DHT22;60945;48.516;-2.768;2022-08-19T08:14:29;23.10;63.10
72814;DHT22;60945;48.516;-2.768;2022-08-19T08:16:55;23.00;63.20
72814;DHT22;60945;48.516;-2.768;2022-08-19T08:19:22;22.90;63.10
72814;DHT22;60945;48.516;-2.768;2022-08-19T08:21:48;22.80;63.60
72814;DHT22;60945;48.516;-2.768;2022-08-19T08:24:14;22.70;63.50
72814;DHT22;60945;48.516;-2.768;2022-08-19T08:26:40;22.60;64.60
72814;DHT22;60945;48.516;-2.768;2022-08-19T08:29:06;22.50;63.90
72814;DHT22;60945;48.516;-2.768;2022-08-19T08:31:33;22.50;64.20
72814;DHT22;60945;48.516;-2.768;2022-08-19T08:33:59;22.50;64.00
72814;DHT22;60945;48.516;-2.768;2022-08-19T08:36:24;22.60;63.50
72814;DHT22;60945;48.516;-2.768;2022-08-19T08:38:50;22.60;63.90
72814;DHT22;60945;48.516;-2.768;2022-08-19T08:41:18;22.50;64.20
72814;DHT22;60945;48.516;-2.768;2022-08-19T08:43:45;22.80;63.40
72814;DHT22;60945;48.516;-2.768;2022-08-19T08:46:13;23.10;63.10
72814;DHT22;60945;48.516;-2.768;2022-08-19T08:48:44;23.20;62.60
72814;DHT22;60945;48.516;-2.768;2022-08-19T08:51:25;23.40;62.00
72814;DHT22;60945;48.516;-2.768;2022-08-19T08:53:52;23.80;60.80
72814;DHT22;60945;48.516;-2.768;2022-08-19T08:56:19;24.00;60.20
72814;DHT22;60945;48.516;-2.768;2022-08-19T08:58:54;23.90;61.30
72814;DHT22;60945;48.516;-2.768;2022-08-19T09:01:22;23.80;62.60
72814;DHT22;60945;48.516;-2.768;2022-08-19T09:03:47;23.70;63.60
72814;DHT22;60945;48.516;-2.768;2022-08-19T09:11:06;23.50;65.20
72814;DHT22;60945;48.516;-2.768;2022-08-19T09:13:44;23.30;65.80
72814;DHT22;60945;48.516;-2.768;2022-08-19T09:16:16;22.90;66.70
72814;DHT22;60945;48.516;-2.768;2022-08-19T09:18:43;22.80;67.40
72814;DHT22;60945;48.516;-2.768;2022-08-19T09:21:11;22.70;67.00
72814;DHT22;60945;48.516;-2.768;2022-08-19T09:23:37;22.60;67.30
72814;DHT22;60945;48.516;-2.768;2022-08-19T09:26:07;22.60;68.10
72814;DHT22;60945;48.516;-2.768;2022-08-19T09:28:32;22.50;68.20
72814;DHT22;60945;48.516;-2.768;2022-08-19T09:30:58;22.60;67.80
72814;DHT22;60945;48.516;-2.768;2022-08-19T09:33:23;22.70;67.90
72814;DHT22;60945;48.516;-2.768;2022-08-19T09:35:49;22.80;67.20
72814;DHT22;60945;48.516;-2.768;2022-08-19T09:38:14;23.00;66.60
72814;DHT22;60945;48.516;-2.768;2022-08-19T09:40:40;23.40;66.10
72814;DHT22;60945;48.516;-2.768;2022-08-19T09:43:05;23.60;64.60
72814;DHT22;60945;48.516;-2.768;2022-08-19T09:45:32;23.70;63.80
72814;DHT22;60945;48.516;-2.768;2022-08-19T09:47:58;23.20;65.20
72814;DHT22;60945;48.516;-2.768;2022-08-19T09:50:23;23.30;65.30
72814;DHT22;60945;48.516;-2.768;2022-08-19T09:52:49;23.40;64.90
72814;DHT22;60945;48.516;-2.768;2022-08-19T09:55:14;23.40;64.90
72814;DHT22;60945;48.516;-2.768;2022-08-19T09:57:41;23.60;65.10
72814;DHT22;60945;48.516;-2.768;2022-08-19T10:00:07;23.60;64.00
72814;DHT22;60945;48.516;-2.768;2022-08-19T10:02:34;23.50;63.80
72814;DHT22;60945;48.516;-2.768;2022-08-19T10:05:00;23.60;63.80
72814;DHT22;60945;48.516;-2.768;2022-08-19T10:07:44;23.80;62.50
72814;DHT22;60945;48.516;-2.768;2022-08-19T10:10:09;23.80;62.60
72814;DHT22;60945;48.516;-2.768;2022-08-19T10:12:36;23.90;62.50
72814;DHT22;60945;48.516;-2.768;2022-08-19T10:15:02;23.90;62.70
72814;DHT22;60945;48.516;-2.768;2022-08-19T10:17:28;23.70;63.00
72814;DHT22;60945;48.516;-2.768;2022-08-19T10:19:54;23.90;62.70
72814;DHT22;60945;48.516;-2.768;2022-08-19T10:22:19;23.70;63.60
72814;DHT22;60945;48.516;-2.768;2022-08-19T10:24:48;23.80;63.20
72814;DHT22;60945;48.516;-2.768;2022-08-19T10:27:14;23.90;63.40
72814;DHT22;60945;48.516;-2.768;2022-08-19T10:29:40;24.40;62.30
72814;DHT22;60945;48.516;-2.768;2022-08-19T10:32:06;25.30;59.30
72814;DHT22;60945;48.516;-2.768;2022-08-19T10:34:33;25.70;58.30
72814;DHT22;60945;48.516;-2.768;2022-08-19T10:36:59;26.70;55.90
72814;DHT22;60945;48.516;-2.768;2022-08-19T10:39:25;26.60;55.60
72814;DHT22;60945;48.516;-2.768;2022-08-19T10:41:52;27.10;54.30
72814;DHT22;60945;48.516;-2.768;2022-08-19T10:44:18;27.10;54.90
72814;DHT22;60945;48.516;-2.768;2022-08-19T10:46:44;26.70;55.70
72814;DHT22;60945;48.516;-2.768;2022-08-19T10:49:12;26.40;56.30
72814;DHT22;60945;48.516;-2.768;2022-08-19T10:51:38;26.40;56.40
72814;DHT22;60945;48.516;-2.768;2022-08-19T10:54:23;27.00;54.80
72814;DHT22;60945;48.516;-2.768;2022-08-19T10:57:09;26.90;54.90
72814;DHT22;60945;48.516;-2.768;2022-08-19T10:59:34;26.40;56.00
72814;DHT22;60945;48.516;-2.768;2022-08-19T11:02:01;25.80;58.50
72814;DHT22;60945;48.516;-2.768;2022-08-19T11:04:27;25.30;61.40
72814;DHT22;60945;48.516;-2.768;2022-08-19T11:06:52;24.90;63.50
72814;DHT22;60945;48.516;-2.768;2022-08-19T11:09:22;24.30;67.00
72814;DHT22;60945;48.516;-2.768;2022-08-19T11:11:51;23.70;67.60
72814;DHT22;60945;48.516;-2.768;2022-08-19T11:14:18;23.30;69.30
72814;DHT22;60945;48.516;-2.768;2022-08-19T11:16:45;23.30;70.30
72814;DHT22;60945;48.516;-2.768;2022-08-19T11:19:11;23.10;69.80
72814;DHT22;60945;48.516;-2.768;2022-08-19T11:21:42;23.10;70.10
72814;DHT22;60945;48.516;-2.768;2022-08-19T11:24:09;23.20;70.20
72814;DHT22;60945;48.516;-2.768;2022-08-19T11:26:35;22.90;69.80
72814;DHT22;60945;48.516;-2.768;2022-08-19T11:29:01;23.00;70.20
72814;DHT22;60945;48.516;-2.768;2022-08-19T11:31:28;22.50;71.00
72814;DHT22;60945;48.516;-2.768;2022-08-19T11:33:55;22.10;72.70
72814;DHT22;60945;48.516;-2.768;2022-08-19T11:36:21;21.90;73.20
72814;DHT22;60945;48.516;-2.768;2022-08-19T11:38:47;21.80;73.40
72814;DHT22;60945;48.516;-2.768;2022-08-19T11:41:13;21.90;73.20
72814;DHT22;60945;48.516;-2.768;2022-08-19T11:43:40;21.40;73.20
72814;DHT22;60945;48.516;-2.768;2022-08-19T11:46:06;20.90;75.50
72814;DHT22;60945;48.516;-2.768;2022-08-19T11:48:32;20.90;76.90
72814;DHT22;60945;48.516;-2.768;2022-08-19T11:50:57;21.00;76.00
72814;DHT22;60945;48.516;-2.768;2022-08-19T11:53:23;21.10;75.90
72814;DHT22;60945;48.516;-2.768;2022-08-19T11:55:48;21.10;76.60
72814;DHT22;60945;48.516;-2.768;2022-08-19T11:58:15;21.00;76.70
72814;DHT22;60945;48.516;-2.768;2022-08-19T12:00:41;21.10;76.60
72814;DHT22;60945;48.516;-2.768;2022-08-19T12:03:07;21.00;74.90
72814;DHT22;60945;48.516;-2.768;2022-08-19T12:05:33;20.90;74.70
72814;DHT22;60945;48.516;-2.768;2022-08-19T12:07:59;20.80;74.90
72814;DHT22;60945;48.516;-2.768;2022-08-19T12:10:24;20.80;75.80
72814;DHT22;60945;48.516;-2.768;2022-08-19T12:12:50;21.10;75.80
72814;DHT22;60945;48.516;-2.768;2022-08-19T12:15:15;21.30;74.70
72814;DHT22;60945;48.516;-2.768;2022-08-19T12:17:41;21.30;72.60
72814;DHT22;60945;48.516;-2.768;2022-08-19T12:20:08;21.40;72.20
72814;DHT22;60945;48.516;-2.768;2022-08-19T12:22:34;21.40;72.00
72814;DHT22;60945;48.516;-2.768;2022-08-19T12:25:00;21.50;70.40
72814;DHT22;60945;48.516;-2.768;2022-08-19T12:27:26;21.50;70.60
72814;DHT22;60945;48.516;-2.768;2022-08-19T12:29:51;21.40;70.00
72814;DHT22;60945;48.516;-2.768;2022-08-19T12:32:17;21.70;70.10
72814;DHT22;60945;48.516;-2.768;2022-08-19T12:34:42;21.90;70.40
72814;DHT22;60945;48.516;-2.768;2022-08-19T12:37:08;21.90;68.10
72814;DHT22;60945;48.516;-2.768;2022-08-19T12:39:35;21.90;70.20
72814;DHT22;60945;48.516;-2.768;2022-08-19T12:42:01;22.10;66.30
72814;DHT22;60945;48.516;-2.768;2022-08-19T12:44:26;22.20;67.60
72814;DHT22;60945;48.516;-2.768;2022-08-19T12:46:52;22.50;65.70
72814;DHT22;60945;48.516;-2.768;2022-08-19T12:49:17;22.70;66.00
72814;DHT22;60945;48.516;-2.768;2022-08-19T12:51:43;23.10;65.20
72814;DHT22;60945;48.516;-2.768;2022-08-19T12:54:08;23.00;65.50
72814;DHT22;60945;48.516;-2.768;2022-08-19T12:56:34;22.90;63.80
72814;DHT22;60945;48.516;-2.768;2022-08-19T12:59:03;22.60;64.60
72814;DHT22;60945;48.516;-2.768;2022-08-19T13:01:29;22.70;66.10
72814;DHT22;60945;48.516;-2.768;2022-08-19T13:03:58;22.80;64.00
72814;DHT22;60945;48.516;-2.768;2022-08-19T13:06:23;22.80;65.80
72814;DHT22;60945;48.516;-2.768;2022-08-19T13:08:49;23.20;67.00
72814;DHT22;60945;48.516;-2.768;2022-08-19T13:11:16;23.60;62.00
72814;DHT22;60945;48.516;-2.768;2022-08-19T13:13:43;23.70;61.60
72814;DHT22;60945;48.516;-2.768;2022-08-19T13:16:10;23.80;61.30
72814;DHT22;60945;48.516;-2.768;2022-08-19T13:18:36;23.70;61.70
72814;DHT22;60945;48.516;-2.768;2022-08-19T13:21:03;23.70;61.00
72814;DHT22;60945;48.516;-2.768;2022-08-19T13:23:33;23.80;59.50
72814;DHT22;60945;48.516;-2.768;2022-08-19T13:26:00;24.20;58.10
72814;DHT22;60945;48.516;-2.768;2022-08-19T13:28:25;24.10;61.40
72814;DHT22;60945;48.516;-2.768;2022-08-19T13:30:51;24.10;61.20
72814;DHT22;60945;48.516;-2.768;2022-08-19T13:33:35;24.10;58.70
72814;DHT22;60945;48.516;-2.768;2022-08-19T13:36:01;24.20;60.80
72814;DHT22;60945;48.516;-2.768;2022-08-19T13:38:26;24.60;59.00
72814;DHT22;60945;48.516;-2.768;2022-08-19T13:40:53;27.00;52.50
72814;DHT22;60945;48.516;-2.768;2022-08-19T13:43:19;29.30;47.10
72814;DHT22;60945;48.516;-2.768;2022-08-19T13:45:47;32.40;41.60
72814;DHT22;60945;48.516;-2.768;2022-08-19T13:48:13;33.40;37.20
72814;DHT22;60945;48.516;-2.768;2022-08-19T13:50:40;30.50;40.90
72814;DHT22;60945;48.516;-2.768;2022-08-19T13:53:06;29.30;44.10
72814;DHT22;60945;48.516;-2.768;2022-08-19T13:55:32;34.80;37.20
72814;DHT22;60945;48.516;-2.768;2022-08-19T13:58:01;40.10;29.60
72814;DHT22;60945;48.516;-2.768;2022-08-19T14:00:29;42.60;25.30
72814;DHT22;60945;48.516;-2.768;2022-08-19T14:02:56;42.20;24.80
72814;DHT22;60945;48.516;-2.768;2022-08-19T14:05:21;40.40;26.90
72814;DHT22;60945;48.516;-2.768;2022-08-19T14:07:47;40.80;26.10
72814;DHT22;60945;48.516;-2.768;2022-08-19T14:10:13;42.90;26.40
72814;DHT22;60945;48.516;-2.768;2022-08-19T14:12:39;45.30;23.40
72814;DHT22;60945;48.516;-2.768;2022-08-19T14:15:05;44.70;22.80
72814;DHT22;60945;48.516;-2.768;2022-08-19T14:17:31;44.10;23.30
72814;DHT22;60945;48.516;-2.768;2022-08-19T14:20:00;42.40;25.00
72814;DHT22;60945;48.516;-2.768;2022-08-19T14:22:32;40.70;26.00
72814;DHT22;60945;48.516;-2.768;2022-08-19T14:24:58;37.60;30.30
72814;DHT22;60945;48.516;-2.768;2022-08-19T14:27:23;40.50;27.30
72814;DHT22;60945;48.516;-2.768;2022-08-19T14:29:50;41.20;26.60
72814;DHT22;60945;48.516;-2.768;2022-08-19T14:32:16;41.20;25.70
72814;DHT22;60945;48.516;-2.768;2022-08-19T14:34:41;42.90;23.70
72814;DHT22;60945;48.516;-2.768;2022-08-19T14:37:07;42.90;23.90
72814;DHT22;60945;48.516;-2.768;2022-08-19T14:39:34;44.90;22.10
72814;DHT22;60945;48.516;-2.768;2022-08-19T14:42:00;46.00;21.50
72814;DHT22;60945;48.516;-2.768;2022-08-19T14:44:26;42.30;22.70
72814;DHT22;60945;48.516;-2.768;2022-08-19T14:46:51;40.60;24.50
72814;DHT22;60945;48.516;-2.768;2022-08-19T14:49:19;38.90;26.50
72814;DHT22;60945;48.516;-2.768;2022-08-19T14:51:45;40.10;24.50
72814;DHT22;60945;48.516;-2.768;2022-08-19T14:54:12;40.30;24.30
72814;DHT22;60945;48.516;-2.768;2022-08-19T14:56:37;41.90;24.40
72814;DHT22;60945;48.516;-2.768;2022-08-19T14:59:05;43.30;24.00
72814;DHT22;60945;48.516;-2.768;2022-08-19T15:01:31;44.30;23.30
72814;DHT22;60945;48.516;-2.768;2022-08-19T15:03:57;44.90;22.20
72814;DHT22;60945;48.516;-2.768;2022-08-19T15:06:22;42.80;23.80
72814;DHT22;60945;48.516;-2.768;2022-08-19T15:08:48;43.90;23.70
72814;DHT22;60945;48.516;-2.768;2022-08-19T15:11:17;43.90;23.30
72814;DHT22;60945;48.516;-2.768;2022-08-19T15:13:46;44.30;22.10
72814;DHT22;60945;48.516;-2.768;2022-08-19T15:16:12;44.20;22.30
72814;DHT22;60945;48.516;-2.768;2022-08-19T15:18:38;43.20;22.70